Terminal Aerodrome Forecast
Issued by NWS Paducah, KY

Home | Current Version | Previous Version | Text Only | Print | Product List | Glossary On
Versions: 1 2 3 4 5 6 7 8 9 10 11 12 13 14 15 16 17 18
274
FTUS43 KPAH 240403 AAB
TAFPAH
TAF AMD
KPAH 240403Z 2404/2424 14007KT P6SM FEW250 WS020/19045KT
     FM240600 17011KT P6SM FEW250 WS020/19045KT
     FM241200 18012G20KT P6SM BKN020
     FM241600 18013G21KT P6SM OVC035=

USA.gov is the U.S. government's official web portal to all federal, state and local government web resources and services.